sensor_id;sensor_type;location;lat;lon;timestamp;P1;durP1;ratioP1;P2;durP2;ratioP2
38240;SDS011;24037;49.536;8.500;2022-09-09T00:00:18;5.32;;;1.15;;
38240;SDS011;24037;49.536;8.500;2022-09-09T00:02:47;3.28;;;1.27;;
38240;SDS011;24037;49.536;8.500;2022-09-09T00:05:37;2.47;;;1.02;;
38240;SDS011;24037;49.536;8.500;2022-09-09T00:08:28;5.70;;;1.00;;
38240;SDS011;24037;49.536;8.500;2022-09-09T00:11:13;3.42;;;0.88;;
38240;SDS011;24037;49.536;8.500;2022-09-09T00:13:48;2.30;;;1.25;;
38240;SDS011;24037;49.536;8.500;2022-09-09T00:16:24;2.58;;;1.30;;
38240;SDS011;24037;49.536;8.500;2022-09-09T00:21:30;4.78;;;1.92;;
38240;SDS011;24037;49.536;8.500;2022-09-09T00:24:00;4.90;;;1.25;;
38240;SDS011;24037;49.536;8.500;2022-09-09T00:29:12;7.95;;;1.40;;
38240;SDS011;24037;49.536;8.500;2022-09-09T00:31:47;4.18;;;1.15;;
38240;SDS011;24037;49.536;8.500;2022-09-09T00:34:21;4.88;;;1.17;;
38240;SDS011;24037;49.536;8.500;2022-09-09T00:36:50;3.78;;;1.45;;
38240;SDS011;24037;49.536;8.500;2022-09-09T00:44:59;3.60;;;1.17;;
38240;SDS011;24037;49.536;8.500;2022-09-09T00:47:46;7.63;;;1.38;;
38240;SDS011;24037;49.536;8.500;2022-09-09T00:50:17;2.28;;;1.40;;
38240;SDS011;24037;49.536;8.500;2022-09-09T00:58:29;4.72;;;1.10;;
38240;SDS011;24037;49.536;8.500;2022-09-09T01:01:06;3.75;;;2.47;;
38240;SDS011;24037;49.536;8.500;2022-09-09T01:14:49;4.10;;;1.40;;
38240;SDS011;24037;49.536;8.500;2022-09-09T01:17:22;2.90;;;1.30;;
38240;SDS011;24037;49.536;8.500;2022-09-09T01:20:15;3.40;;;1.70;;
38240;SDS011;24037;49.536;8.500;2022-09-09T01:23:02;3.60;;;1.73;;
38240;SDS011;24037;49.536;8.500;2022-09-09T01:28:50;5.93;;;1.40;;
38240;SDS011;24037;49.536;8.500;2022-09-09T01:34:17;3.38;;;1.65;;
38240;SDS011;24037;49.536;8.500;2022-09-09T01:36:49;2.15;;;1.17;;
38240;SDS011;24037;49.536;8.500;2022-09-09T01:39:21;4.25;;;1.90;;
38240;SDS011;24037;49.536;8.500;2022-09-09T01:41:56;3.13;;;1.77;;
38240;SDS011;24037;49.536;8.500;2022-09-09T01:44:23;4.38;;;2.05;;
38240;SDS011;24037;49.536;8.500;2022-09-09T01:46:51;5.97;;;2.55;;
38240;SDS011;24037;49.536;8.500;2022-09-09T01:49:19;3.28;;;1.95;;
38240;SDS011;24037;49.536;8.500;2022-09-09T01:51:46;3.17;;;1.25;;
38240;SDS011;24037;49.536;8.500;2022-09-09T01:54:20;4.97;;;1.92;;
38240;SDS011;24037;49.536;8.500;2022-09-09T01:59:24;2.58;;;1.63;;
38240;SDS011;24037;49.536;8.500;2022-09-09T02:02:43;2.05;;;1.25;;
38240;SDS011;24037;49.536;8.500;2022-09-09T02:08:14;6.18;;;1.90;;
38240;SDS011;24037;49.536;8.500;2022-09-09T02:10:58;4.77;;;1.50;;
38240;SDS011;24037;49.536;8.500;2022-09-09T02:13:38;2.58;;;1.10;;
38240;SDS011;24037;49.536;8.500;2022-09-09T02:16:13;3.50;;;1.58;;
38240;SDS011;24037;49.536;8.500;2022-09-09T02:22:00;2.58;;;1.33;;
38240;SDS011;24037;49.536;8.500;2022-09-09T02:24:28;4.40;;;1.45;;
38240;SDS011;24037;49.536;8.500;2022-09-09T02:27:09;3.60;;;2.50;;
38240;SDS011;24037;49.536;8.500;2022-09-09T02:29:41;4.07;;;1.45;;
38240;SDS011;24037;49.536;8.500;2022-09-09T02:32:12;3.80;;;1.40;;
38240;SDS011;24037;49.536;8.500;2022-09-09T02:34:47;5.55;;;1.35;;
38240;SDS011;24037;49.536;8.500;2022-09-09T02:37:18;5.72;;;1.30;;
38240;SDS011;24037;49.536;8.500;2022-09-09T02:39:51;4.65;;;1.77;;
38240;SDS011;24037;49.536;8.500;2022-09-09T02:42:20;6.25;;;1.52;;
38240;SDS011;24037;49.536;8.500;2022-09-09T02:44:46;3.45;;;1.00;;
38240;SDS011;24037;49.536;8.500;2022-09-09T02:47:25;3.88;;;1.23;;
38240;SDS011;24037;49.536;8.500;2022-09-09T02:50:22;1.60;;;0.77;;
38240;SDS011;24037;49.536;8.500;2022-09-09T02:55:35;1.83;;;0.90;;
38240;SDS011;24037;49.536;8.500;2022-09-09T02:58:07;2.80;;;1.20;;
38240;SDS011;24037;49.536;8.500;2022-09-09T03:03:04;5.38;;;1.52;;
38240;SDS011;24037;49.536;8.500;2022-09-09T03:05:33;4.03;;;1.60;;
38240;SDS011;24037;49.536;8.500;2022-09-09T03:08:00;3.05;;;1.40;;
38240;SDS011;24037;49.536;8.500;2022-09-09T03:10:26;3.90;;;1.95;;
38240;SDS011;24037;49.536;8.500;2022-09-09T03:12:52;3.25;;;1.00;;
38240;SDS011;24037;49.536;8.500;2022-09-09T03:15:18;2.42;;;1.25;;
38240;SDS011;24037;49.536;8.500;2022-09-09T03:17:45;3.50;;;1.10;;
38240;SDS011;24037;49.536;8.500;2022-09-09T03:20:11;4.07;;;1.50;;
38240;SDS011;24037;49.536;8.500;2022-09-09T03:22:38;3.65;;;1.25;;
38240;SDS011;24037;49.536;8.500;2022-09-09T03:25:05;6.03;;;1.17;;
38240;SDS011;24037;49.536;8.500;2022-09-09T03:27:33;5.43;;;1.58;;
38240;SDS011;24037;49.536;8.500;2022-09-09T03:29:59;5.82;;;1.35;;
38240;SDS011;24037;49.536;8.500;2022-09-09T03:32:29;3.42;;;1.00;;
38240;SDS011;24037;49.536;8.500;2022-09-09T03:34:57;5.30;;;1.10;;
38240;SDS011;24037;49.536;8.500;2022-09-09T03:37:23;4.13;;;1.95;;
38240;SDS011;24037;49.536;8.500;2022-09-09T03:39:50;2.53;;;0.70;;
38240;SDS011;24037;49.536;8.500;2022-09-09T03:42:18;1.75;;;1.08;;
38240;SDS011;24037;49.536;8.500;2022-09-09T03:44:46;3.95;;;1.25;;
38240;SDS011;24037;49.536;8.500;2022-09-09T03:47:19;3.92;;;1.13;;
38240;SDS011;24037;49.536;8.500;2022-09-09T03:49:48;4.47;;;1.33;;
38240;SDS011;24037;49.536;8.500;2022-09-09T03:52:14;5.22;;;1.95;;
38240;SDS011;24037;49.536;8.500;2022-09-09T03:54:41;5.32;;;1.40;;
38240;SDS011;24037;49.536;8.500;2022-09-09T03:57:11;1.88;;;1.08;;
38240;SDS011;24037;49.536;8.500;2022-09-09T03:59:37;1.75;;;0.80;;
38240;SDS011;24037;49.536;8.500;2022-09-09T04:02:04;2.67;;;1.10;;
38240;SDS011;24037;49.536;8.500;2022-09-09T04:04:30;2.13;;;0.88;;
38240;SDS011;24037;49.536;8.500;2022-09-09T04:06:57;6.93;;;1.13;;
38240;SDS011;24037;49.536;8.500;2022-09-09T04:09:23;3.70;;;1.00;;
38240;SDS011;24037;49.536;8.500;2022-09-09T04:11:50;4.03;;;0.63;;
38240;SDS011;24037;49.536;8.500;2022-09-09T04:14:18;5.78;;;1.00;;
38240;SDS011;24037;49.536;8.500;2022-09-09T04:16:46;3.45;;;0.75;;
38240;SDS011;24037;49.536;8.500;2022-09-09T04:19:12;4.25;;;0.60;;
38240;SDS011;24037;49.536;8.500;2022-09-09T04:21:41;5.30;;;0.70;;
38240;SDS011;24037;49.536;8.500;2022-09-09T04:24:08;5.78;;;0.70;;
38240;SDS011;24037;49.536;8.500;2022-09-09T04:26:34;1.38;;;0.50;;
38240;SDS011;24037;49.536;8.500;2022-09-09T04:29:03;5.80;;;0.75;;
38240;SDS011;24037;49.536;8.500;2022-09-09T04:31:29;0.82;;;0.47;;
38240;SDS011;24037;49.536;8.500;2022-09-09T04:33:56;2.45;;;0.68;;
38240;SDS011;24037;49.536;8.500;2022-09-09T04:36:23;6.13;;;1.02;;
38240;SDS011;24037;49.536;8.500;2022-09-09T04:38:54;2.75;;;0.50;;
38240;SDS011;24037;49.536;8.500;2022-09-09T04:41:20;4.57;;;0.70;;
38240;SDS011;24037;49.536;8.500;2022-09-09T04:43:49;1.85;;;0.52;;
38240;SDS011;24037;49.536;8.500;2022-09-09T04:46:17;1.85;;;0.60;;
38240;SDS011;24037;49.536;8.500;2022-09-09T04:48:43;3.25;;;0.70;;
38240;SDS011;24037;49.536;8.500;2022-09-09T04:51:11;3.08;;;0.60;;
38240;SDS011;24037;49.536;8.500;2022-09-09T04:53:39;1.48;;;0.40;;
38240;SDS011;24037;49.536;8.500;2022-09-09T04:56:10;3.20;;;0.60;;
38240;SDS011;24037;49.536;8.500;2022-09-09T04:58:41;0.95;;;0.40;;
38240;SDS011;24037;49.536;8.500;2022-09-09T05:01:13;3.45;;;0.60;;
38240;SDS011;24037;49.536;8.500;2022-09-09T05:03:44;4.47;;;1.02;;
38240;SDS011;24037;49.536;8.500;2022-09-09T05:06:13;2.88;;;0.60;;
38240;SDS011;24037;49.536;8.500;2022-09-09T05:08:42;1.08;;;0.60;;
38240;SDS011;24037;49.536;8.500;2022-09-09T05:11:20;0.88;;;0.40;;
38240;SDS011;24037;49.536;8.500;2022-09-09T05:13:54;2.40;;;0.40;;
38240;SDS011;24037;49.536;8.500;2022-09-09T05:16:22;2.05;;;0.50;;
38240;SDS011;24037;49.536;8.500;2022-09-09T05:18:49;2.15;;;0.73;;
38240;SDS011;24037;49.536;8.500;2022-09-09T05:21:17;2.05;;;0.40;;
38240;SDS011;24037;49.536;8.500;2022-09-09T05:23:45;2.15;;;0.73;;
38240;SDS011;24037;49.536;8.500;2022-09-09T05:26:13;3.38;;;0.55;;
38240;SDS011;24037;49.536;8.500;2022-09-09T05:28:42;1.60;;;0.50;;
38240;SDS011;24037;49.536;8.500;2022-09-09T05:31:09;2.38;;;0.57;;
38240;SDS011;24037;49.536;8.500;2022-09-09T05:33:39;3.08;;;0.47;;
38240;SDS011;24037;49.536;8.500;2022-09-09T05:36:18;2.58;;;0.30;;
38240;SDS011;24037;49.536;8.500;2022-09-09T05:38:49;1.20;;;0.50;;
38240;SDS011;24037;49.536;8.500;2022-09-09T05:41:16;3.05;;;0.45;;
38240;SDS011;24037;49.536;8.500;2022-09-09T05:43:45;1.00;;;0.38;;
38240;SDS011;24037;49.536;8.500;2022-09-09T05:46:18;2.63;;;0.60;;
38240;SDS011;24037;49.536;8.500;2022-09-09T05:48:48;2.70;;;0.50;;
38240;SDS011;24037;49.536;8.500;2022-09-09T05:51:22;2.72;;;0.47;;
38240;SDS011;24037;49.536;8.500;2022-09-09T05:53:51;1.50;;;0.30;;
38240;SDS011;24037;49.536;8.500;2022-09-09T05:56:19;2.30;;;0.50;;
38240;SDS011;24037;49.536;8.500;2022-09-09T05:58:51;2.30;;;0.50;;
38240;SDS011;24037;49.536;8.500;2022-09-09T06:01:21;3.78;;;0.85;;
38240;SDS011;24037;49.536;8.500;2022-09-09T06:03:56;1.70;;;0.60;;
38240;SDS011;24037;49.536;8.500;2022-09-09T06:06:24;2.60;;;0.50;;
38240;SDS011;24037;49.536;8.500;2022-09-09T06:11:23;2.17;;;0.50;;
38240;SDS011;24037;49.536;8.500;2022-09-09T06:13:52;1.85;;;0.60;;
38240;SDS011;24037;49.536;8.500;2022-09-09T06:16:21;0.90;;;0.45;;
38240;SDS011;24037;49.536;8.500;2022-09-09T06:18:49;4.30;;;1.30;;
38240;SDS011;24037;49.536;8.500;2022-09-09T06:21:18;1.73;;;0.43;;
38240;SDS011;24037;49.536;8.500;2022-09-09T06:23:49;2.45;;;1.15;;
38240;SDS011;24037;49.536;8.500;2022-09-09T06:26:23;2.83;;;0.45;;
38240;SDS011;24037;49.536;8.500;2022-09-09T06:28:53;2.30;;;0.60;;
38240;SDS011;24037;49.536;8.500;2022-09-09T06:31:21;1.77;;;0.45;;
38240;SDS011;24037;49.536;8.500;2022-09-09T06:33:50;4.53;;;0.50;;
38240;SDS011;24037;49.536;8.500;2022-09-09T06:36:27;2.60;;;0.98;;
38240;SDS011;24037;49.536;8.500;2022-09-09T06:38:55;3.90;;;1.48;;
38240;SDS011;24037;49.536;8.500;2022-09-09T06:41:23;2.08;;;0.70;;
38240;SDS011;24037;49.536;8.500;2022-09-09T06:43:52;3.42;;;0.80;;
38240;SDS011;24037;49.536;8.500;2022-09-09T06:46:28;3.92;;;0.65;;
38240;SDS011;24037;49.536;8.500;2022-09-09T06:48:58;2.70;;;0.50;;
38240;SDS011;24037;49.536;8.500;2022-09-09T06:51:26;5.18;;;0.82;;
38240;SDS011;24037;49.536;8.500;2022-09-09T06:53:55;3.30;;;0.60;;
38240;SDS011;24037;49.536;8.500;2022-09-09T06:56:31;4.60;;;0.80;;
38240;SDS011;24037;49.536;8.500;2022-09-09T06:59:05;4.10;;;0.80;;
38240;SDS011;24037;49.536;8.500;2022-09-09T07:01:35;4.57;;;0.40;;
38240;SDS011;24037;49.536;8.500;2022-09-09T07:04:07;2.28;;;0.63;;
38240;SDS011;24037;49.536;8.500;2022-09-09T07:06:36;1.27;;;0.40;;
38240;SDS011;24037;49.536;8.500;2022-09-09T07:09:06;2.20;;;0.95;;
38240;SDS011;24037;49.536;8.500;2022-09-09T07:11:39;3.05;;;0.60;;
38240;SDS011;24037;49.536;8.500;2022-09-09T07:14:10;3.03;;;0.40;;
38240;SDS011;24037;49.536;8.500;2022-09-09T07:16:42;2.05;;;0.75;;
38240;SDS011;24037;49.536;8.500;2022-09-09T07:19:10;4.63;;;0.90;;
38240;SDS011;24037;49.536;8.500;2022-09-09T07:21:37;1.35;;;0.45;;
38240;SDS011;24037;49.536;8.500;2022-09-09T07:24:05;4.88;;;1.23;;
38240;SDS011;24037;49.536;8.500;2022-09-09T07:26:33;3.42;;;0.82;;
38240;SDS011;24037;49.536;8.500;2022-09-09T07:29:02;3.22;;;0.70;;
38240;SDS011;24037;49.536;8.500;2022-09-09T07:31:30;3.83;;;0.80;;
38240;SDS011;24037;49.536;8.500;2022-09-09T07:33:58;4.90;;;1.02;;
38240;SDS011;24037;49.536;8.500;2022-09-09T07:36:26;7.95;;;1.10;;
38240;SDS011;24037;49.536;8.500;2022-09-09T07:38:58;1.40;;;0.52;;
38240;SDS011;24037;49.536;8.500;2022-09-09T07:41:52;3.88;;;1.17;;
38240;SDS011;24037;49.536;8.500;2022-09-09T07:44:22;2.65;;;0.50;;
38240;SDS011;24037;49.536;8.500;2022-09-09T07:47:06;1.52;;;0.45;;
38240;SDS011;24037;49.536;8.500;2022-09-09T07:49:36;2.42;;;0.65;;
38240;SDS011;24037;49.536;8.500;2022-09-09T07:52:04;3.42;;;0.80;;
38240;SDS011;24037;49.536;8.500;2022-09-09T07:54:32;4.60;;;1.00;;
38240;SDS011;24037;49.536;8.500;2022-09-09T07:56:59;3.72;;;0.57;;
38240;SDS011;24037;49.536;8.500;2022-09-09T07:59:29;2.67;;;0.50;;
38240;SDS011;24037;49.536;8.500;2022-09-09T08:01:56;4.63;;;0.90;;
38240;SDS011;24037;49.536;8.500;2022-09-09T08:04:27;2.40;;;0.70;;
38240;SDS011;24037;49.536;8.500;2022-09-09T08:06:55;2.50;;;0.70;;
38240;SDS011;24037;49.536;8.500;2022-09-09T08:09:24;7.07;;;0.75;;
38240;SDS011;24037;49.536;8.500;2022-09-09T08:11:53;3.15;;;0.60;;
38240;SDS011;24037;49.536;8.500;2022-09-09T08:14:19;3.28;;;0.90;;
38240;SDS011;24037;49.536;8.500;2022-09-09T08:16:47;9.95;;;1.55;;
38240;SDS011;24037;49.536;8.500;2022-09-09T08:19:17;4.00;;;1.00;;
38240;SDS011;24037;49.536;8.500;2022-09-09T08:21:45;5.30;;;0.73;;
38240;SDS011;24037;49.536;8.500;2022-09-09T08:24:12;5.22;;;1.50;;
38240;SDS011;24037;49.536;8.500;2022-09-09T08:26:47;3.65;;;0.90;;
38240;SDS011;24037;49.536;8.500;2022-09-09T08:29:16;5.13;;;1.50;;
38240;SDS011;24037;49.536;8.500;2022-09-09T08:31:52;3.10;;;1.02;;
38240;SDS011;24037;49.536;8.500;2022-09-09T08:34:23;3.60;;;1.00;;
38240;SDS011;24037;49.536;8.500;2022-09-09T08:36:52;6.57;;;0.82;;
38240;SDS011;24037;49.536;8.500;2022-09-09T08:39:23;4.05;;;0.90;;
38240;SDS011;24037;49.536;8.500;2022-09-09T08:50:30;4.13;;;0.93;;
38240;SDS011;24037;49.536;8.500;2022-09-09T08:55:54;3.13;;;0.60;;
38240;SDS011;24037;49.536;8.500;2022-09-09T08:58:51;3.50;;;0.95;;
38240;SDS011;24037;49.536;8.500;2022-09-09T09:07:04;3.53;;;0.90;;
38240;SDS011;24037;49.536;8.500;2022-09-09T09:12:46;3.55;;;1.05;;
38240;SDS011;24037;49.536;8.500;2022-09-09T09:15:17;7.55;;;1.25;;
38240;SDS011;24037;49.536;8.500;2022-09-09T09:17:47;5.55;;;0.95;;
38240;SDS011;24037;49.536;8.500;2022-09-09T09:20:16;4.53;;;0.90;;
38240;SDS011;24037;49.536;8.500;2022-09-09T09:22:54;6.17;;;1.53;;
38240;SDS011;24037;49.536;8.500;2022-09-09T09:25:34;3.78;;;1.13;;
38240;SDS011;24037;49.536;8.500;2022-09-09T09:28:18;4.68;;;1.88;;
38240;SDS011;24037;49.536;8.500;2022-09-09T09:33:48;4.05;;;0.90;;
38240;SDS011;24037;49.536;8.500;2022-09-09T09:36:20;7.18;;;1.13;;
38240;SDS011;24037;49.536;8.500;2022-09-09T09:39:00;6.07;;;1.15;;
38240;SDS011;24037;49.536;8.500;2022-09-09T09:41:35;4.43;;;1.00;;
38240;SDS011;24037;49.536;8.500;2022-09-09T09:44:05;7.13;;;0.88;;
38240;SDS011;24037;49.536;8.500;2022-09-09T09:46:47;3.30;;;1.45;;
38240;SDS011;24037;49.536;8.500;2022-09-09T09:49:14;4.28;;;0.80;;
38240;SDS011;24037;49.536;8.500;2022-09-09T09:51:43;4.45;;;1.60;;
38240;SDS011;24037;49.536;8.500;2022-09-09T09:56:39;4.82;;;0.75;;
38240;SDS011;24037;49.536;8.500;2022-09-09T09:59:22;3.90;;;0.80;;
38240;SDS011;24037;49.536;8.500;2022-09-09T10:04:44;4.10;;;1.13;;
38240;SDS011;24037;49.536;8.500;2022-09-09T10:07:17;3.60;;;0.80;;
38240;SDS011;24037;49.536;8.500;2022-09-09T10:09:47;3.58;;;0.65;;
38240;SDS011;24037;49.536;8.500;2022-09-09T10:18:08;2.40;;;0.52;;
38240;SDS011;24037;49.536;8.500;2022-09-09T10:21:03;2.22;;;0.40;;
38240;SDS011;24037;49.536;8.500;2022-09-09T10:24:02;3.00;;;0.75;;
38240;SDS011;24037;49.536;8.500;2022-09-09T10:26:42;2.08;;;0.77;;
38240;SDS011;24037;49.536;8.500;2022-09-09T10:40:26;2.05;;;0.73;;
38240;SDS011;24037;49.536;8.500;2022-09-09T10:43:17;2.05;;;0.50;;
38240;SDS011;24037;49.536;8.500;2022-09-09T10:46:21;3.30;;;0.90;;
38240;SDS011;24037;49.536;8.500;2022-09-09T10:59:58;4.00;;;1.27;;
38240;SDS011;24037;49.536;8.500;2022-09-09T11:02:31;6.50;;;1.02;;
38240;SDS011;24037;49.536;8.500;2022-09-09T11:05:16;5.15;;;1.20;;
38240;SDS011;24037;49.536;8.500;2022-09-09T11:07:44;3.15;;;0.98;;
38240;SDS011;24037;49.536;8.500;2022-09-09T11:10:20;4.78;;;0.90;;
38240;SDS011;24037;49.536;8.500;2022-09-09T11:12:53;2.78;;;0.52;;
38240;SDS011;24037;49.536;8.500;2022-09-09T11:15:26;2.47;;;0.80;;
38240;SDS011;24037;49.536;8.500;2022-09-09T11:18:01;3.83;;;0.80;;
38240;SDS011;24037;49.536;8.500;2022-09-09T11:20:30;4.50;;;0.73;;
38240;SDS011;24037;49.536;8.500;2022-09-09T11:22:59;3.30;;;0.60;;
38240;SDS011;24037;49.536;8.500;2022-09-09T11:25:37;3.75;;;0.70;;
38240;SDS011;24037;49.536;8.500;2022-09-09T11:30:56;2.63;;;0.80;;
38240;SDS011;24037;49.536;8.500;2022-09-09T11:36:29;4.88;;;0.50;;
38240;SDS011;24037;49.536;8.500;2022-09-09T11:41:52;2.67;;;1.45;;
38240;SDS011;24037;49.536;8.500;2022-09-09T11:44:29;2.15;;;0.95;;
38240;SDS011;24037;49.536;8.500;2022-09-09T11:46:56;5.95;;;1.17;;
38240;SDS011;24037;49.536;8.500;2022-09-09T11:49:27;3.88;;;1.15;;
38240;SDS011;24037;49.536;8.500;2022-09-09T11:51:55;6.47;;;2.00;;
38240;SDS011;24037;49.536;8.500;2022-09-09T11:54:27;4.30;;;1.13;;
38240;SDS011;24037;49.536;8.500;2022-09-09T11:56:57;2.13;;;1.10;;
38240;SDS011;24037;49.536;8.500;2022-09-09T11:59:28;1.63;;;0.50;;
38240;SDS011;24037;49.536;8.500;2022-09-09T12:02:03;4.18;;;0.80;;
38240;SDS011;24037;49.536;8.500;2022-09-09T12:04:42;3.15;;;1.13;;
38240;SDS011;24037;49.536;8.500;2022-09-09T12:07:30;4.57;;;1.08;;
38240;SDS011;24037;49.536;8.500;2022-09-09T12:12:33;4.10;;;0.70;;
38240;SDS011;24037;49.536;8.500;2022-09-09T12:17:41;2.28;;;0.40;;
38240;SDS011;24037;49.536;8.500;2022-09-09T12:20:14;3.05;;;0.60;;
38240;SDS011;24037;49.536;8.500;2022-09-09T12:23:05;8.18;;;1.10;;
38240;SDS011;24037;49.536;8.500;2022-09-09T12:31:29;2.75;;;0.52;;
38240;SDS011;24037;49.536;8.500;2022-09-09T12:34:40;2.20;;;0.68;;
38240;SDS011;24037;49.536;8.500;2022-09-09T12:36:58;2.45;;;0.55;;
38240;SDS011;24037;49.536;8.500;2022-09-09T12:39:51;4.50;;;0.60;;
38240;SDS011;24037;49.536;8.500;2022-09-09T12:42:21;1.08;;;0.50;;
38240;SDS011;24037;49.536;8.500;2022-09-09T12:44:52;2.83;;;0.50;;
38240;SDS011;24037;49.536;8.500;2022-09-09T12:47:18;2.60;;;0.70;;
38240;SDS011;24037;49.536;8.500;2022-09-09T12:49:48;4.88;;;0.82;;
38240;SDS011;24037;49.536;8.500;2022-09-09T12:52:23;5.68;;;1.70;;
38240;SDS011;24037;49.536;8.500;2022-09-09T12:54:55;4.40;;;1.67;;
38240;SDS011;24037;49.536;8.500;2022-09-09T12:57:23;3.67;;;1.13;;
38240;SDS011;24037;49.536;8.500;2022-09-09T12:59:51;3.67;;;1.23;;
38240;SDS011;24037;49.536;8.500;2022-09-09T13:02:20;5.72;;;1.55;;
38240;SDS011;24037;49.536;8.500;2022-09-09T13:04:48;5.38;;;1.17;;
38240;SDS011;24037;49.536;8.500;2022-09-09T13:07:16;3.30;;;0.90;;
38240;SDS011;24037;49.536;8.500;2022-09-09T13:09:44;6.65;;;1.88;;
38240;SDS011;24037;49.536;8.500;2022-09-09T13:12:19;4.57;;;1.83;;
38240;SDS011;24037;49.536;8.500;2022-09-09T13:14:51;4.13;;;2.00;;
38240;SDS011;24037;49.536;8.500;2022-09-09T13:17:21;5.38;;;1.75;;
38240;SDS011;24037;49.536;8.500;2022-09-09T13:19:54;6.47;;;2.05;;
38240;SDS011;24037;49.536;8.500;2022-09-09T13:22:29;7.32;;;2.45;;
38240;SDS011;24037;49.536;8.500;2022-09-09T13:25:04;13.32;;;3.03;;
38240;SDS011;24037;49.536;8.500;2022-09-09T13:28:00;6.57;;;2.20;;
38240;SDS011;24037;49.536;8.500;2022-09-09T13:30:30;8.25;;;2.25;;
38240;SDS011;24037;49.536;8.500;2022-09-09T13:35:55;7.20;;;2.72;;
38240;SDS011;24037;49.536;8.500;2022-09-09T13:38:22;6.43;;;2.47;;
38240;SDS011;24037;49.536;8.500;2022-09-09T13:43:25;8.32;;;1.75;;
38240;SDS011;24037;49.536;8.500;2022-09-09T13:45:55;3.42;;;0.80;;
38240;SDS011;24037;49.536;8.500;2022-09-09T13:48:24;4.38;;;0.50;;
38240;SDS011;24037;49.536;8.500;2022-09-09T13:50:54;2.38;;;1.13;;
38240;SDS011;24037;49.536;8.500;2022-09-09T13:53:30;3.08;;;0.73;;
38240;SDS011;24037;49.536;8.500;2022-09-09T13:55:56;3.05;;;0.82;;
38240;SDS011;24037;49.536;8.500;2022-09-09T13:58:24;1.35;;;0.50;;
38240;SDS011;24037;49.536;8.500;2022-09-09T14:00:51;2.25;;;0.73;;
38240;SDS011;24037;49.536;8.500;2022-09-09T14:03:18;7.63;;;0.60;;
38240;SDS011;24037;49.536;8.500;2022-09-09T14:05:45;3.60;;;0.50;;
38240;SDS011;24037;49.536;8.500;2022-09-09T14:08:16;3.13;;;0.70;;
38240;SDS011;24037;49.536;8.500;2022-09-09T14:10:58;4.18;;;0.75;;
38240;SDS011;24037;49.536;8.500;2022-09-09T14:13:25;1.73;;;0.65;;
38240;SDS011;24037;49.536;8.500;2022-09-09T14:15:51;1.15;;;0.43;;
38240;SDS011;24037;49.536;8.500;2022-09-09T14:18:18;1.95;;;0.50;;
38240;SDS011;24037;49.536;8.500;2022-09-09T14:20:44;2.20;;;0.52;;
38240;SDS011;24037;49.536;8.500;2022-09-09T14:23:11;3.47;;;1.02;;
38240;SDS011;24037;49.536;8.500;2022-09-09T14:25:41;1.50;;;0.30;;
38240;SDS011;24037;49.536;8.500;2022-09-09T14:28:11;1.38;;;0.30;;
38240;SDS011;24037;49.536;8.500;2022-09-09T14:30:39;3.75;;;0.43;;
38240;SDS011;24037;49.536;8.500;2022-09-09T14:33:07;2.17;;;0.40;;
38240;SDS011;24037;49.536;8.500;2022-09-09T14:35:35;1.52;;;0.40;;
38240;SDS011;24037;49.536;8.500;2022-09-09T14:38:02;0.65;;;0.30;;
38240;SDS011;24037;49.536;8.500;2022-09-09T14:40:29;2.70;;;0.40;;
38240;SDS011;24037;49.536;8.500;2022-09-09T14:42:56;3.22;;;0.40;;
38240;SDS011;24037;49.536;8.500;2022-09-09T14:45:23;3.65;;;1.00;;
38240;SDS011;24037;49.536;8.500;2022-09-09T14:47:50;1.10;;;0.20;;
38240;SDS011;24037;49.536;8.500;2022-09-09T14:50:18;2.60;;;0.50;;
38240;SDS011;24037;49.536;8.500;2022-09-09T14:52:44;2.50;;;0.50;;
38240;SDS011;24037;49.536;8.500;2022-09-09T14:55:11;1.77;;;0.40;;
38240;SDS011;24037;49.536;8.500;2022-09-09T14:57:37;1.15;;;0.50;;
38240;SDS011;24037;49.536;8.500;2022-09-09T15:00:04;1.67;;;0.38;;
38240;SDS011;24037;49.536;8.500;2022-09-09T15:02:31;1.88;;;0.50;;
38240;SDS011;24037;49.536;8.500;2022-09-09T15:04:57;1.40;;;0.50;;
38240;SDS011;24037;49.536;8.500;2022-09-09T15:07:24;1.48;;;0.50;;
38240;SDS011;24037;49.536;8.500;2022-09-09T15:09:51;3.83;;;0.55;;
38240;SDS011;24037;49.536;8.500;2022-09-09T15:12:19;0.82;;;0.40;;
38240;SDS011;24037;49.536;8.500;2022-09-09T15:14:46;2.97;;;0.55;;
38240;SDS011;24037;49.536;8.500;2022-09-09T15:17:13;4.50;;;1.23;;
38240;SDS011;24037;49.536;8.500;2022-09-09T15:19:39;1.13;;;0.60;;
38240;SDS011;24037;49.536;8.500;2022-09-09T15:22:07;1.35;;;0.68;;
38240;SDS011;24037;49.536;8.500;2022-09-09T15:24:34;1.70;;;0.40;;
38240;SDS011;24037;49.536;8.500;2022-09-09T15:27:01;3.15;;;1.55;;
38240;SDS011;24037;49.536;8.500;2022-09-09T15:29:27;1.63;;;0.57;;
38240;SDS011;24037;49.536;8.500;2022-09-09T15:31:54;1.08;;;0.70;;
38240;SDS011;24037;49.536;8.500;2022-09-09T15:34:23;6.53;;;1.02;;
38240;SDS011;24037;49.536;8.500;2022-09-09T15:36:50;3.90;;;0.88;;
38240;SDS011;24037;49.536;8.500;2022-09-09T15:39:17;0.77;;;0.57;;
38240;SDS011;24037;49.536;8.500;2022-09-09T15:41:44;1.33;;;0.30;;
38240;SDS011;24037;49.536;8.500;2022-09-09T15:44:12;1.60;;;0.50;;
38240;SDS011;24037;49.536;8.500;2022-09-09T15:46:40;4.07;;;0.50;;
38240;SDS011;24037;49.536;8.500;2022-09-09T15:49:13;4.57;;;0.75;;
38240;SDS011;24037;49.536;8.500;2022-09-09T15:51:46;3.35;;;0.75;;
38240;SDS011;24037;49.536;8.500;2022-09-09T15:54:17;3.15;;;0.40;;
38240;SDS011;24037;49.536;8.500;2022-09-09T15:56:46;3.30;;;0.87;;
38240;SDS011;24037;49.536;8.500;2022-09-09T15:59:15;0.98;;;0.40;;
38240;SDS011;24037;49.536;8.500;2022-09-09T16:01:41;1.20;;;0.47;;
38240;SDS011;24037;49.536;8.500;2022-09-09T16:04:09;2.55;;;1.15;;
38240;SDS011;24037;49.536;8.500;2022-09-09T16:06:36;3.90;;;0.98;;
38240;SDS011;24037;49.536;8.500;2022-09-09T16:09:03;1.92;;;0.80;;
38240;SDS011;24037;49.536;8.500;2022-09-09T16:11:31;4.18;;;1.52;;
38240;SDS011;24037;49.536;8.500;2022-09-09T16:14:00;2.97;;;1.15;;
38240;SDS011;24037;49.536;8.500;2022-09-09T16:16:27;3.60;;;1.20;;
38240;SDS011;24037;49.536;8.500;2022-09-09T16:18:59;2.67;;;0.88;;
38240;SDS011;24037;49.536;8.500;2022-09-09T16:21:28;6.43;;;1.10;;
38240;SDS011;24037;49.536;8.500;2022-09-09T16:23:58;5.07;;;0.70;;
38240;SDS011;24037;49.536;8.500;2022-09-09T16:26:26;1.75;;;0.70;;
38240;SDS011;24037;49.536;8.500;2022-09-09T16:28:53;2.13;;;1.05;;
38240;SDS011;24037;49.536;8.500;2022-09-09T16:31:21;3.05;;;0.82;;
38240;SDS011;24037;49.536;8.500;2022-09-09T16:33:49;1.98;;;0.88;;
38240;SDS011;24037;49.536;8.500;2022-09-09T16:36:17;2.60;;;0.70;;
38240;SDS011;24037;49.536;8.500;2022-09-09T16:38:47;1.58;;;0.65;;
38240;SDS011;24037;49.536;8.500;2022-09-09T16:41:13;2.70;;;0.70;;
38240;SDS011;24037;49.536;8.500;2022-09-09T16:43:40;3.97;;;0.77;;
38240;SDS011;24037;49.536;8.500;2022-09-09T16:46:11;2.03;;;0.75;;
38240;SDS011;24037;49.536;8.500;2022-09-09T16:48:42;4.13;;;0.70;;
38240;SDS011;24037;49.536;8.500;2022-09-09T16:51:17;1.75;;;0.60;;
38240;SDS011;24037;49.536;8.500;2022-09-09T16:53:45;1.83;;;0.60;;
38240;SDS011;24037;49.536;8.500;2022-09-09T16:56:15;2.63;;;0.60;;
38240;SDS011;24037;49.536;8.500;2022-09-09T16:58:42;3.67;;;0.90;;
38240;SDS011;24037;49.536;8.500;2022-09-09T17:01:10;5.05;;;1.27;;
38240;SDS011;24037;49.536;8.500;2022-09-09T17:03:40;4.28;;;1.23;;
38240;SDS011;24037;49.536;8.500;2022-09-09T17:06:15;3.55;;;0.70;;
38240;SDS011;24037;49.536;8.500;2022-09-09T17:08:41;3.75;;;0.93;;
38240;SDS011;24037;49.536;8.500;2022-09-09T17:11:12;1.70;;;0.80;;
38240;SDS011;24037;49.536;8.500;2022-09-09T17:13:44;3.35;;;0.75;;
38240;SDS011;24037;49.536;8.500;2022-09-09T17:16:12;2.47;;;1.20;;
38240;SDS011;24037;49.536;8.500;2022-09-09T17:18:40;1.65;;;0.80;;
38240;SDS011;24037;49.536;8.500;2022-09-09T17:21:11;4.00;;;1.20;;
38240;SDS011;24037;49.536;8.500;2022-09-09T17:23:40;5.30;;;1.05;;